createdAt,value
2024-02-07T00:01:40.082Z,12.00
2024-02-07T00:05:52.542Z,10.48
2024-02-07T00:10:05.567Z,11.45
2024-02-07T00:14:18.073Z,10.85
2024-02-07T00:18:30.518Z,9.98
2024-02-07T00:22:43.087Z,10.68
2024-02-07T00:26:55.409Z,9.60
2024-02-07T00:31:08.783Z,10.88
2024-02-07T00:35:23.019Z,9.00
2024-02-07T00:39:38.516Z,9.52
2024-02-07T00:43:52.258Z,13.57
2024-02-07T00:48:05.353Z,9.77
2024-02-07T00:52:18.346Z,10.27
2024-02-07T00:56:31.705Z,8.68
2024-02-07T01:00:44.102Z,9.35
2024-02-07T01:04:56.616Z,9.18
2024-02-07T01:09:11.622Z,9.80
2024-02-07T01:13:24.027Z,8.45
2024-02-07T01:17:36.318Z,9.45
2024-02-07T01:21:48.740Z,9.25
2024-02-07T01:26:02.525Z,9.55
2024-02-07T01:30:15.127Z,9.93
2024-02-07T01:34:27.560Z,10.15
2024-02-07T01:38:40.225Z,9.10
2024-02-07T01:42:52.562Z,8.90
2024-02-07T01:47:12.909Z,8.77
2024-02-07T01:51:26.142Z,8.77
2024-02-07T01:55:39.744Z,8.00
2024-02-07T01:59:52.243Z,9.10
2024-02-07T02:04:05.032Z,8.88
2024-02-07T02:08:17.467Z,8.27
2024-02-07T02:12:31.734Z,8.98
2024-02-07T02:16:44.179Z,7.88
2024-02-07T02:20:56.743Z,8.10
2024-02-07T02:25:38.755Z,7.30
2024-02-07T02:29:55.540Z,7.68
2024-02-07T02:34:08.670Z,7.93
2024-02-07T02:38:25.006Z,7.80
2024-02-07T02:42:37.415Z,9.30
2024-02-07T02:46:50.539Z,8.02
2024-02-07T02:51:04.323Z,7.82
2024-02-07T02:55:16.851Z,7.80
2024-02-07T02:59:31.185Z,7.93
2024-02-07T03:03:55.397Z,7.65
2024-02-07T03:08:11.782Z,7.97
2024-02-07T03:12:24.248Z,7.85
2024-02-07T03:16:37.588Z,7.63
2024-02-07T03:20:51.094Z,7.82
2024-02-07T03:25:03.573Z,7.93
2024-02-07T03:29:15.894Z,7.65
2024-02-07T03:33:28.492Z,7.70
2024-02-07T03:37:41.287Z,6.93
2024-02-07T03:41:53.856Z,6.93
2024-02-07T03:46:07.609Z,7.60
2024-02-07T03:50:26.996Z,7.32
2024-02-07T03:54:51.348Z,9.02
2024-02-07T03:59:04.678Z,7.88
2024-02-07T04:03:19.646Z,8.05
2024-02-07T04:07:32.115Z,8.10
2024-02-07T04:11:44.577Z,7.90
2024-02-07T04:16:15.603Z,7.57
2024-02-07T04:20:46.214Z,8.13
2024-02-07T04:25:16.995Z,7.50
2024-02-07T04:29:47.708Z,7.80
2024-02-07T04:34:18.664Z,8.27
2024-02-07T04:38:49.691Z,8.30
2024-02-07T04:43:20.485Z,8.43
2024-02-07T04:47:51.237Z,8.48
2024-02-07T04:52:21.934Z,8.43
2024-02-07T04:56:53.182Z,7.50
2024-02-07T05:01:24.010Z,8.95
2024-02-07T05:05:54.791Z,8.70
2024-02-07T05:10:26.260Z,8.38
2024-02-07T05:14:50.386Z,9.45
2024-02-07T05:19:03.866Z,9.80
2024-02-07T05:23:18.465Z,8.98
2024-02-07T05:27:33.608Z,8.95
2024-02-07T05:31:46.927Z,8.80
2024-02-07T05:36:00.360Z,9.50
2024-02-07T05:40:13.437Z,10.15
2024-02-07T05:44:25.874Z,9.73
2024-02-07T05:48:40.817Z,9.65
2024-02-07T05:52:53.188Z,9.25
2024-02-07T05:57:05.612Z,8.90
2024-02-07T06:01:18.820Z,10.38
2024-02-07T06:05:31.325Z,9.00
2024-02-07T06:09:43.708Z,9.30
2024-02-07T06:13:56.156Z,10.77
2024-02-07T06:18:08.940Z,12.18
2024-02-07T06:22:21.395Z,12.73
2024-02-07T06:26:33.806Z,13.95
2024-02-07T06:30:46.194Z,14.63
2024-02-07T06:34:58.629Z,14.60
2024-02-07T06:39:11.035Z,14.15
2024-02-07T06:43:23.910Z,15.13
2024-02-07T06:47:36.321Z,14.13
2024-02-07T06:51:49.436Z,15.68
2024-02-07T06:56:02.240Z,14.57
2024-02-07T07:00:15.626Z,16.17
2024-02-07T07:04:28.138Z,15.55
2024-02-07T07:08:40.591Z,14.55
2024-02-07T07:12:52.971Z,13.30
2024-02-07T07:17:05.590Z,11.65
2024-02-07T07:21:18.114Z,10.70
2024-02-07T07:25:30.670Z,11.02
2024-02-07T07:29:43.157Z,11.55
2024-02-07T07:33:56.749Z,10.88
2024-02-07T07:38:10.653Z,10.68
2024-02-07T07:42:23.212Z,11.30
2024-02-07T07:46:35.724Z,11.38
2024-02-07T07:50:48.203Z,12.60
2024-02-07T07:55:00.609Z,13.02
2024-02-07T07:59:14.934Z,14.82
2024-02-07T08:03:27.307Z,13.95
2024-02-07T08:07:39.662Z,13.60
2024-02-07T08:11:52.076Z,13.00
2024-02-07T08:16:04.599Z,11.95
2024-02-07T08:20:17.997Z,9.77
2024-02-07T08:24:33.421Z,10.85
2024-02-07T08:28:50.625Z,8.10
2024-02-07T08:33:07.204Z,8.40
2024-02-07T08:37:31.905Z,8.55
2024-02-07T08:41:44.471Z,7.05
2024-02-07T08:45:56.822Z,6.43
2024-02-07T08:50:09.705Z,7.30
2024-02-07T08:54:22.102Z,6.05
2024-02-07T08:58:36.448Z,7.90
2024-02-07T09:02:54.601Z,7.80
2024-02-07T09:07:07.078Z,7.50
2024-02-07T09:11:19.631Z,6.72
2024-02-07T09:15:31.966Z,7.05
2024-02-07T09:19:44.289Z,6.70
2024-02-07T09:23:58.181Z,6.95
2024-02-07T09:28:10.537Z,7.47
2024-02-07T09:32:22.847Z,5.70
2024-02-07T09:36:40.034Z,5.53
2024-02-07T09:41:00.705Z,4.20
2024-02-07T09:45:15.796Z,4.93
2024-02-07T09:49:29.852Z,5.88
2024-02-07T09:53:44.422Z,4.82
2024-02-07T09:57:58.069Z,5.68
2024-02-07T10:02:13.437Z,8.02
2024-02-07T10:06:27.159Z,5.00
2024-02-07T10:10:40.271Z,4.72
2024-02-07T10:14:52.705Z,5.32
2024-02-07T10:19:05.629Z,5.78
2024-02-07T10:23:18.086Z,6.25
2024-02-07T10:27:30.434Z,4.90
2024-02-07T10:31:42.831Z,5.35
2024-02-07T10:36:05.596Z,5.80
2024-02-07T10:40:18.115Z,4.82
2024-02-07T10:44:30.607Z,4.22
2024-02-07T10:48:43.531Z,4.85
2024-02-07T10:52:56.337Z,4.15
2024-02-07T10:57:10.500Z,4.25
2024-02-07T11:01:24.073Z,4.40
2024-02-07T11:05:37.610Z,3.65
2024-02-07T11:09:50.124Z,4.35
2024-02-07T11:14:05.284Z,4.15
2024-02-07T11:18:18.058Z,4.20
2024-02-07T11:22:37.823Z,3.97
2024-02-07T11:26:51.176Z,4.03
2024-02-07T11:31:06.952Z,3.42
2024-02-07T11:35:23.774Z,3.53
2024-02-07T11:39:41.508Z,3.72
2024-02-07T11:44:03.036Z,3.85
2024-02-07T11:48:22.863Z,3.38
2024-02-07T11:52:40.003Z,3.20
2024-02-07T11:56:56.706Z,3.63
2024-02-07T12:01:12.577Z,3.70
2024-02-07T12:05:26.496Z,3.45
2024-02-07T12:09:38.974Z,4.90
2024-02-07T12:13:51.463Z,4.18
2024-02-07T12:18:06.373Z,3.65
2024-02-07T12:22:21.733Z,3.92
2024-02-07T12:26:34.138Z,3.03
2024-02-07T12:30:46.565Z,3.45
2024-02-07T12:35:01.440Z,4.13
2024-02-07T12:39:13.966Z,3.53
2024-02-07T12:43:27.980Z,3.50
2024-02-07T12:47:40.825Z,4.65
2024-02-07T12:51:53.352Z,4.63
2024-02-07T12:56:08.649Z,3.90
2024-02-07T13:00:21.421Z,4.85
2024-02-07T13:04:34.286Z,5.13
2024-02-07T13:08:47.897Z,4.90
2024-02-07T13:13:00.280Z,4.63
2024-02-07T13:17:12.651Z,5.30
2024-02-07T13:21:25.341Z,5.30
2024-02-07T13:25:38.388Z,5.63
2024-02-07T13:29:51.199Z,4.93
2024-02-07T13:34:03.756Z,5.28
2024-02-07T13:38:26.665Z,5.35
2024-02-07T13:42:46.105Z,4.10
2024-02-07T13:47:00.376Z,4.07
2024-02-07T13:51:13.317Z,4.97
2024-02-07T13:55:25.732Z,4.88
2024-02-07T13:59:38.266Z,4.82
2024-02-07T14:03:50.700Z,5.10
2024-02-07T14:08:03.261Z,5.55
2024-02-07T14:12:15.674Z,4.72
2024-02-07T14:16:28.270Z,5.03
2024-02-07T14:20:40.752Z,4.65
2024-02-07T14:24:53.325Z,4.10
2024-02-07T14:29:05.905Z,4.40
2024-02-07T14:33:19.191Z,4.45
2024-02-07T14:37:37.988Z,5.63
2024-02-07T14:41:50.427Z,5.20
2024-02-07T14:46:02.784Z,5.28
2024-02-07T14:50:20.013Z,5.03
2024-02-07T14:54:32.465Z,4.53
2024-02-07T14:58:44.949Z,3.78
2024-02-07T15:02:57.282Z,4.60
2024-02-07T15:07:09.720Z,4.25
2024-02-07T15:11:23.317Z,3.92
2024-02-07T15:15:36.153Z,4.68
2024-02-07T15:19:49.162Z,4.78
2024-02-07T15:24:01.524Z,5.05
2024-02-07T15:28:14.029Z,5.00
2024-02-07T15:32:26.478Z,7.05
2024-02-07T15:36:39.054Z,6.63
2024-02-07T15:40:53.076Z,6.90
2024-02-07T15:45:06.944Z,7.05
2024-02-07T15:49:19.562Z,6.70
2024-02-07T15:53:32.280Z,7.90
2024-02-07T15:57:44.720Z,10.23
2024-02-07T16:01:57.595Z,14.23
2024-02-07T16:06:10.298Z,15.50
2024-02-07T16:10:22.880Z,17.65
2024-02-07T16:14:36.315Z,20.83
2024-02-07T16:18:48.646Z,25.45
2024-02-07T16:23:01.865Z,27.13
2024-02-07T16:27:14.300Z,26.45
2024-02-07T16:31:26.784Z,28.55
2024-02-07T16:35:39.767Z,31.55
2024-02-07T16:39:53.317Z,29.58
2024-02-07T16:44:08.844Z,29.70
2024-02-07T16:48:21.350Z,34.13
2024-02-07T16:52:35.148Z,36.33
2024-02-07T16:56:47.526Z,39.25
2024-02-07T17:01:00.296Z,37.83
2024-02-07T17:05:13.533Z,38.78
2024-02-07T17:09:25.961Z,37.22
2024-02-07T17:13:39.952Z,33.03
2024-02-07T17:17:52.680Z,34.47
2024-02-07T17:22:06.352Z,33.72
2024-02-07T17:26:18.935Z,36.92
2024-02-07T17:30:36.756Z,36.85
2024-02-07T17:34:50.339Z,38.85
2024-02-07T17:39:02.804Z,36.22
2024-02-07T17:43:15.151Z,38.80
2024-02-07T17:47:29.041Z,39.83
2024-02-07T17:51:44.978Z,32.88
2024-02-07T17:55:57.379Z,32.22
2024-02-07T18:00:10.390Z,30.25
2024-02-07T18:04:22.842Z,29.23
2024-02-07T18:08:35.985Z,31.77
2024-02-07T18:12:48.811Z,35.25
2024-02-07T18:17:01.435Z,34.38
2024-02-07T18:21:14.104Z,37.72
2024-02-07T18:25:26.729Z,40.55
2024-02-07T18:29:39.088Z,36.67
2024-02-07T18:33:51.627Z,36.03
2024-02-07T18:38:04.282Z,36.60
2024-02-07T18:42:16.916Z,37.08
2024-02-07T18:46:29.227Z,49.33
2024-02-07T18:50:42.464Z,39.13
2024-02-07T18:54:56.475Z,37.85
2024-02-07T18:59:08.878Z,39.05
2024-02-07T19:03:22.372Z,43.33
2024-02-07T19:07:34.700Z,37.67
2024-02-07T19:11:47.278Z,39.30
2024-02-07T19:15:59.719Z,40.10
2024-02-07T19:20:12.470Z,37.28
2024-02-07T19:24:25.011Z,33.47
2024-02-07T19:28:38.467Z,33.72
2024-02-07T19:32:50.982Z,34.72
2024-02-07T19:37:03.445Z,33.90
2024-02-07T19:41:15.946Z,32.67
2024-02-07T19:45:28.252Z,36.72
2024-02-07T19:49:40.788Z,36.17
2024-02-07T19:53:53.343Z,38.20
2024-02-07T19:58:05.698Z,27.90
2024-02-07T20:02:18.222Z,26.25
2024-02-07T20:06:32.079Z,26.50
2024-02-07T20:10:46.453Z,22.08
2024-02-07T20:15:01.270Z,22.90
2024-02-07T20:19:13.990Z,21.25
2024-02-07T20:23:26.616Z,21.77
2024-02-07T20:27:39.966Z,21.10
2024-02-07T20:31:52.510Z,19.73
2024-02-07T20:36:05.645Z,20.85
2024-02-07T20:40:18.061Z,20.70
2024-02-07T20:44:30.652Z,19.58
2024-02-07T20:48:43.844Z,19.92
2024-02-07T20:52:59.273Z,19.35
2024-02-07T20:57:14.756Z,19.67
2024-02-07T21:01:27.125Z,19.92
2024-02-07T21:05:40.344Z,21.38
2024-02-07T21:09:52.793Z,24.00
2024-02-07T21:14:05.415Z,22.63
2024-02-07T21:18:18.022Z,23.98
2024-02-07T21:22:30.430Z,22.60
2024-02-07T21:26:42.960Z,22.52
2024-02-07T21:30:55.343Z,24.15
2024-02-07T21:35:09.874Z,21.27
2024-02-07T21:39:23.483Z,21.60
2024-02-07T21:43:35.826Z,21.30
2024-02-07T21:47:48.349Z,24.35
2024-02-07T21:52:00.768Z,23.20
2024-02-07T21:56:13.174Z,26.50
2024-02-07T22:00:27.038Z,22.95
2024-02-07T22:04:39.581Z,21.27
2024-02-07T22:08:52.076Z,21.65
2024-02-07T22:13:04.722Z,22.52
2024-02-07T22:17:17.036Z,21.10
2024-02-07T22:21:29.483Z,34.05
2024-02-07T22:25:41.952Z,23.83
2024-02-07T22:29:54.536Z,26.88
2024-02-07T22:34:07.923Z,16.58
2024-02-07T22:38:20.496Z,20.52
2024-02-07T22:42:32.866Z,19.48
2024-02-07T22:46:49.354Z,19.77
2024-02-07T22:51:01.802Z,39.72
2024-02-07T22:55:14.348Z,31.92
2024-02-07T22:59:26.965Z,16.52
2024-02-07T23:03:39.348Z,14.23
2024-02-07T23:07:51.813Z,16.10
2024-02-07T23:12:04.392Z,14.48
2024-02-07T23:16:16.855Z,16.25
2024-02-07T23:20:29.291Z,19.17
2024-02-07T23:24:41.880Z,12.27
2024-02-07T23:28:54.786Z,13.20
2024-02-07T23:33:07.975Z,14.25
2024-02-07T23:37:20.377Z,7.90
2024-02-07T23:41:35.747Z,8.20
2024-02-07T23:45:48.061Z,7.85
2024-02-07T23:50:00.668Z,7.68
2024-02-07T23:54:15.198Z,9.82
2024-02-07T23:58:27.996Z,15.75
